createdAt,value
2022-07-26T00:00:44.552Z,51.08
2022-07-26T00:04:47.434Z,51.49
2022-07-26T00:08:49.399Z,51.51
2022-07-26T00:12:50.935Z,52.17
2022-07-26T00:16:53.008Z,52.42
2022-07-26T00:20:56.026Z,52.51
2022-07-26T00:24:57.559Z,53.34
2022-07-26T00:28:59.069Z,53.46
2022-07-26T00:33:00.618Z,53.61
2022-07-26T00:37:03.591Z,54.07
2022-07-26T00:41:05.807Z,54.31
2022-07-26T00:45:09.374Z,54.15
2022-07-26T00:49:12.015Z,54.62
2022-07-26T00:53:15.854Z,54.95
2022-07-26T00:57:17.560Z,55.00
2022-07-26T01:01:19.284Z,55.48
2022-07-26T01:05:21.995Z,55.27
2022-07-26T01:09:24.918Z,55.39
2022-07-26T01:13:28.159Z,56.23
2022-07-26T01:17:32.212Z,56.34
2022-07-26T01:21:39.395Z,57.06
2022-07-26T01:25:43.658Z,56.86
2022-07-26T01:29:47.583Z,57.42
2022-07-26T01:33:49.155Z,57.22
2022-07-26T01:37:53.351Z,57.84
2022-07-26T01:41:55.087Z,58.21
2022-07-26T01:45:56.916Z,57.86
2022-07-26T01:49:58.447Z,58.12
2022-07-26T01:54:02.000Z,58.64
2022-07-26T01:58:04.531Z,59.03
2022-07-26T02:02:06.162Z,58.48
2022-07-26T02:06:08.372Z,58.68
2022-07-26T02:10:13.584Z,59.16
2022-07-26T02:14:25.727Z,59.22
2022-07-26T02:18:29.318Z,59.91
2022-07-26T02:22:30.950Z,59.63
2022-07-26T02:26:34.137Z,60.08
2022-07-26T02:30:35.677Z,60.15
2022-07-26T02:34:37.414Z,60.82
2022-07-26T02:38:38.902Z,60.49
2022-07-26T02:42:42.034Z,60.01
2022-07-26T02:46:43.616Z,60.60
2022-07-26T02:50:45.203Z,60.47
2022-07-26T02:54:46.875Z,60.35
2022-07-26T02:58:49.894Z,60.39
2022-07-26T03:02:51.882Z,60.48
2022-07-26T03:06:53.601Z,61.66
2022-07-26T03:10:55.399Z,61.94
2022-07-26T03:14:58.257Z,62.72
2022-07-26T03:19:00.162Z,62.35
2022-07-26T03:23:01.652Z,62.25
2022-07-26T03:27:03.607Z,62.30
2022-07-26T03:31:06.468Z,62.52
2022-07-26T03:35:09.461Z,62.50
2022-07-26T03:39:13.270Z,62.49
2022-07-26T03:43:14.957Z,62.32
2022-07-26T03:47:17.931Z,61.82
2022-07-26T03:51:19.598Z,61.58
2022-07-26T03:55:21.279Z,61.35
2022-07-26T03:59:22.855Z,61.54
2022-07-26T04:03:25.827Z,61.59
2022-07-26T04:07:27.441Z,61.56
2022-07-26T04:11:29.070Z,61.08
2022-07-26T04:15:30.695Z,60.55
2022-07-26T04:19:33.580Z,60.93
2022-07-26T04:23:41.563Z,61.27
2022-07-26T04:27:43.404Z,61.23
2022-07-26T04:31:44.887Z,61.97
2022-07-26T04:35:47.767Z,61.94
2022-07-26T04:39:54.461Z,62.03
2022-07-26T04:43:56.503Z,61.37
2022-07-26T04:47:58.363Z,61.60
2022-07-26T04:52:01.487Z,61.82
2022-07-26T04:56:03.354Z,61.54
2022-07-26T05:00:23.417Z,61.86
2022-07-26T05:04:25.636Z,61.64
2022-07-26T05:08:28.636Z,61.57
2022-07-26T05:12:30.081Z,61.81
2022-07-26T05:16:31.842Z,61.84
2022-07-26T05:20:34.272Z,61.61
2022-07-26T05:24:37.051Z,62.09
2022-07-26T05:28:39.064Z,62.61
2022-07-26T05:32:40.518Z,62.75
2022-07-26T05:36:42.244Z,61.73
2022-07-26T05:40:50.303Z,61.77
2022-07-26T05:44:52.284Z,61.39
2022-07-26T05:48:54.057Z,61.35
2022-07-26T05:52:55.567Z,62.35
2022-07-26T05:56:58.791Z,62.82
2022-07-26T06:01:00.263Z,64.86
2022-07-26T06:05:01.779Z,66.76
2022-07-26T06:09:03.778Z,68.27
2022-07-26T06:13:06.787Z,67.81
2022-07-26T06:17:08.538Z,68.45
2022-07-26T06:21:10.102Z,68.08
2022-07-26T06:25:12.390Z,68.45
2022-07-26T06:29:15.250Z,66.79
2022-07-26T06:33:16.877Z,68.06
2022-07-26T06:37:18.355Z,67.59
2022-07-26T06:41:19.961Z,67.25
2022-07-26T06:45:23.186Z,67.57
2022-07-26T06:49:25.172Z,68.19
2022-07-26T06:53:26.738Z,67.39
2022-07-26T06:57:28.358Z,66.57
2022-07-26T07:01:57.780Z,66.06
2022-07-26T07:05:52.911Z,66.03
2022-07-26T07:09:54.673Z,65.49
2022-07-26T07:13:56.183Z,65.75
2022-07-26T07:17:59.070Z,65.74
2022-07-26T07:22:01.411Z,64.74
2022-07-26T07:26:03.041Z,65.18
2022-07-26T07:30:05.953Z,64.11
2022-07-26T07:34:11.033Z,63.87
2022-07-26T07:38:12.862Z,63.50
2022-07-26T07:42:14.348Z,64.34
2022-07-26T07:46:16.458Z,63.96
2022-07-26T07:50:19.510Z,64.28
2022-07-26T07:54:22.287Z,62.89
2022-07-26T07:58:24.084Z,63.51
2022-07-26T08:02:25.565Z,63.44
2022-07-26T08:06:28.408Z,62.13
2022-07-26T08:10:30.366Z,62.25
2022-07-26T08:14:31.840Z,61.87
2022-07-26T08:18:33.328Z,60.63
2022-07-26T08:22:36.512Z,60.28
2022-07-26T08:26:38.007Z,60.79
2022-07-26T08:30:39.677Z,58.80
2022-07-26T08:34:41.564Z,59.44
2022-07-26T08:38:47.154Z,58.91
2022-07-26T08:42:52.583Z,58.93
2022-07-26T08:46:54.378Z,57.35
2022-07-26T08:50:56.394Z,55.41
2022-07-26T08:54:59.233Z,55.24
2022-07-26T08:59:06.682Z,54.76
2022-07-26T09:03:23.462Z,56.01
2022-07-26T09:07:24.980Z,50.73
2022-07-26T09:11:31.279Z,49.51
2022-07-26T09:15:32.734Z,47.99
2022-07-26T09:19:34.298Z,46.59
2022-07-26T09:23:39.626Z,46.54
2022-07-26T09:27:42.565Z,42.38
2022-07-26T09:31:44.121Z,40.97
2022-07-26T09:36:01.040Z,40.92
2022-07-26T09:40:05.543Z,40.24
2022-07-26T09:44:22.237Z,38.64
2022-07-26T09:48:33.103Z,41.33
2022-07-26T09:52:57.717Z,41.49
2022-07-26T09:57:00.271Z,41.99
2022-07-26T10:01:03.568Z,41.92
2022-07-26T10:05:06.320Z,42.65
2022-07-26T10:09:09.675Z,42.95
2022-07-26T10:13:11.669Z,42.80
2022-07-26T10:17:49.409Z,40.97
2022-07-26T10:21:51.104Z,42.03
2022-07-26T10:25:52.963Z,43.03
2022-07-26T10:30:23.012Z,40.66
2022-07-26T10:34:34.460Z,41.61
2022-07-26T10:38:37.544Z,41.58
2022-07-26T10:42:43.303Z,42.90
2022-07-26T10:47:15.581Z,42.32
2022-07-26T10:51:26.448Z,38.88
2022-07-26T10:55:28.045Z,39.17
2022-07-26T10:59:53.611Z,39.69
2022-07-26T11:03:52.775Z,38.86
2022-07-26T11:08:02.203Z,37.88
2022-07-26T11:12:15.411Z,38.34
2022-07-26T11:16:16.900Z,36.88
2022-07-26T11:20:29.402Z,38.31
2022-07-26T11:24:33.945Z,40.32
2022-07-26T11:28:46.580Z,42.84
2022-07-26T11:32:52.504Z,45.55
2022-07-26T11:36:55.649Z,51.20
2022-07-26T11:40:58.464Z,55.34
2022-07-26T11:45:00.115Z,57.02
2022-07-26T11:49:01.898Z,54.79
2022-07-26T11:53:20.916Z,54.96
2022-07-26T11:57:28.850Z,53.66
2022-07-26T12:01:30.604Z,52.53
2022-07-26T12:05:32.164Z,53.01
2022-07-26T12:09:35.152Z,53.45
2022-07-26T12:13:55.826Z,55.65
2022-07-26T12:17:59.734Z,53.49
2022-07-26T12:22:12.074Z,54.18
2022-07-26T12:26:25.128Z,54.07
2022-07-26T12:30:30.974Z,54.69
2022-07-26T12:34:33.667Z,53.96
2022-07-26T12:38:39.112Z,53.67
2022-07-26T12:42:42.414Z,53.02
2022-07-26T12:46:45.379Z,51.12
2022-07-26T12:50:46.881Z,50.01
2022-07-26T12:54:49.807Z,45.45
2022-07-26T12:58:51.447Z,44.63
2022-07-26T13:02:54.329Z,46.42
2022-07-26T13:06:56.875Z,46.37
2022-07-26T13:11:00.173Z,47.49
2022-07-26T13:15:01.798Z,45.32
2022-07-26T13:19:04.778Z,45.38
2022-07-26T13:23:06.936Z,46.99
2022-07-26T13:27:10.128Z,45.76
2022-07-26T13:31:12.437Z,46.51
2022-07-26T13:35:15.346Z,43.27
2022-07-26T13:39:16.927Z,40.51
2022-07-26T13:43:18.634Z,37.87
2022-07-26T13:47:20.132Z,37.29
2022-07-26T13:51:23.222Z,38.00
2022-07-26T13:55:25.345Z,38.88
2022-07-26T13:59:27.651Z,38.59
2022-07-26T14:03:34.978Z,37.04
2022-07-26T14:07:38.262Z,40.86
2022-07-26T14:11:40.632Z,41.96
2022-07-26T14:15:42.149Z,42.66
2022-07-26T14:19:43.772Z,43.43
2022-07-26T14:23:46.733Z,44.07
2022-07-26T14:27:48.613Z,44.21
2022-07-26T14:31:50.326Z,44.70
2022-07-26T14:35:51.801Z,45.38
2022-07-26T14:39:54.619Z,46.94
2022-07-26T14:43:56.080Z,47.46
2022-07-26T14:47:57.563Z,47.65
2022-07-26T14:51:59.085Z,46.60
2022-07-26T14:56:02.086Z,46.32
2022-07-26T15:00:05.353Z,46.37
2022-07-26T15:04:07.166Z,46.61
2022-07-26T15:08:08.688Z,46.08
2022-07-26T15:12:11.538Z,47.31
2022-07-26T15:16:14.440Z,47.42
2022-07-26T15:20:16.041Z,47.83
2022-07-26T15:24:17.761Z,46.78
2022-07-26T15:28:20.764Z,45.67
2022-07-26T15:32:22.355Z,45.20
2022-07-26T15:36:23.864Z,45.57
2022-07-26T15:40:25.458Z,46.60
2022-07-26T15:44:28.340Z,45.68
2022-07-26T15:48:29.841Z,45.45
2022-07-26T15:52:31.331Z,45.83
2022-07-26T15:56:32.798Z,46.04
2022-07-26T16:00:35.811Z,45.80
2022-07-26T16:04:37.539Z,45.40
2022-07-26T16:08:52.741Z,45.74
2022-07-26T16:13:00.549Z,46.36
2022-07-26T16:17:03.581Z,46.27
2022-07-26T16:21:05.175Z,46.00
2022-07-26T16:25:08.142Z,47.12
2022-07-26T16:29:09.871Z,46.56
2022-07-26T16:33:12.957Z,46.49
2022-07-26T16:37:14.432Z,46.89
2022-07-26T16:41:16.813Z,46.94
2022-07-26T16:45:19.531Z,46.68
2022-07-26T16:49:22.566Z,46.83
2022-07-26T16:53:24.152Z,47.11
2022-07-26T16:57:25.722Z,47.05
2022-07-26T17:01:27.433Z,47.06
2022-07-26T17:05:30.365Z,46.88
2022-07-26T17:09:32.887Z,46.71
2022-07-26T17:13:34.531Z,46.73
2022-07-26T17:17:36.285Z,47.34
2022-07-26T17:21:39.300Z,46.59
2022-07-26T17:25:40.813Z,46.97
2022-07-26T17:29:42.782Z,46.48
2022-07-26T17:33:44.395Z,47.12
2022-07-26T17:37:48.350Z,47.26
2022-07-26T17:41:49.923Z,47.18
2022-07-26T17:45:51.508Z,47.41
2022-07-26T17:49:52.999Z,47.61
2022-07-26T17:53:55.803Z,46.67
2022-07-26T17:57:57.291Z,47.65
2022-07-26T18:01:58.857Z,48.20
2022-07-26T18:06:00.465Z,48.21
2022-07-26T18:10:04.079Z,48.26
2022-07-26T18:14:05.934Z,49.37
2022-07-26T18:18:07.600Z,49.71
2022-07-26T18:22:09.103Z,49.76
2022-07-26T18:26:12.147Z,49.53
2022-07-26T18:30:13.760Z,49.08
2022-07-26T18:34:15.419Z,49.16
2022-07-26T18:38:17.100Z,49.36
2022-07-26T18:42:20.000Z,50.05
2022-07-26T18:46:21.535Z,50.57
2022-07-26T18:50:23.211Z,50.82
2022-07-26T18:54:25.033Z,51.27
2022-07-26T18:58:28.123Z,51.15
2022-07-26T19:02:29.726Z,51.25
2022-07-26T19:06:31.375Z,51.05
2022-07-26T19:10:33.100Z,51.74
2022-07-26T19:14:35.963Z,51.72
2022-07-26T19:18:37.542Z,51.93
2022-07-26T19:22:39.923Z,52.23
2022-07-26T19:26:42.468Z,54.47
2022-07-26T19:30:45.694Z,55.15
2022-07-26T19:34:47.227Z,57.02
2022-07-26T19:38:48.924Z,57.08
2022-07-26T19:42:50.603Z,56.01
2022-07-26T19:46:57.441Z,57.38
2022-07-26T19:50:59.267Z,58.07
2022-07-26T19:55:00.819Z,58.13
2022-07-26T19:59:02.590Z,56.99
2022-07-26T20:03:05.489Z,58.31
2022-07-26T20:07:07.310Z,57.69
2022-07-26T20:11:08.778Z,59.00
2022-07-26T20:15:11.011Z,58.30
2022-07-26T20:19:14.160Z,59.02
2022-07-26T20:23:15.848Z,58.67
2022-07-26T20:27:17.354Z,59.13
2022-07-26T20:31:18.953Z,57.94
2022-07-26T20:35:22.021Z,57.77
2022-07-26T20:39:23.495Z,57.90
2022-07-26T20:43:25.580Z,57.68
2022-07-26T20:47:29.205Z,58.39
2022-07-26T20:51:32.174Z,58.27
2022-07-26T20:55:33.818Z,57.90
2022-07-26T20:59:35.322Z,57.34
2022-07-26T21:03:36.815Z,58.75
2022-07-26T21:07:55.709Z,57.30
2022-07-26T21:12:00.881Z,56.66
2022-07-26T21:16:02.390Z,56.73
2022-07-26T21:20:05.466Z,56.92
2022-07-26T21:24:08.938Z,55.65
2022-07-26T21:28:10.394Z,56.20
2022-07-26T21:32:11.896Z,56.52
2022-07-26T21:36:13.388Z,57.11
2022-07-26T21:40:16.230Z,56.34
2022-07-26T21:44:17.895Z,56.85
2022-07-26T21:48:19.633Z,57.11
2022-07-26T21:52:21.232Z,56.22
2022-07-26T21:56:24.153Z,56.65
2022-07-26T22:00:25.741Z,57.25
2022-07-26T22:04:27.212Z,56.97
2022-07-26T22:08:28.939Z,55.85
2022-07-26T22:12:31.743Z,56.53
2022-07-26T22:16:33.236Z,55.56
2022-07-26T22:20:35.355Z,55.80
2022-07-26T22:24:36.804Z,54.78
2022-07-26T22:28:39.663Z,54.12
2022-07-26T22:32:41.094Z,54.45
2022-07-26T22:36:45.542Z,53.80
2022-07-26T22:40:47.198Z,53.22
2022-07-26T22:44:50.002Z,52.76
2022-07-26T22:48:51.511Z,52.67
2022-07-26T22:52:53.098Z,52.58
2022-07-26T22:56:54.578Z,51.79
2022-07-26T23:00:58.850Z,51.22
2022-07-26T23:05:00.382Z,51.44
2022-07-26T23:09:03.787Z,50.37
2022-07-26T23:13:05.243Z,49.85
2022-07-26T23:17:09.058Z,49.66
2022-07-26T23:21:10.527Z,48.74
2022-07-26T23:25:12.042Z,48.44
2022-07-26T23:29:14.092Z,47.84
2022-07-26T23:33:17.159Z,47.78
2022-07-26T23:37:38.790Z,46.52
2022-07-26T23:41:40.286Z,46.94
2022-07-26T23:45:41.749Z,46.88
2022-07-26T23:49:46.010Z,47.10
2022-07-26T23:53:47.509Z,47.64
2022-07-26T23:57:48.954Z,47.41
